sensor_id;sensor_type;location;lat;lon;timestamp;pressure;altitude;pressure_sealevel;temperature;humidity
1077;BME280;64114;48.726;9.370;2022-12-20T00:01:25;99374.13;;;3.70;99.95
1077;BME280;64114;48.726;9.370;2022-12-20T00:03:55;99365.59;;;3.68;99.72
1077;BME280;64114;48.726;9.370;2022-12-20T00:06:24;99367.28;;;3.68;100.00
1077;BME280;64114;48.726;9.370;2022-12-20T00:08:53;99334.31;;;3.48;100.00
1077;BME280;64114;48.726;9.370;2022-12-20T00:11:21;99369.06;;;3.70;99.74
1077;BME280;64114;48.726;9.370;2022-12-20T00:13:50;99370.53;;;3.65;99.79
1077;BME280;64114;48.726;9.370;2022-12-20T00:16:20;99372.13;;;3.63;99.87
1077;BME280;64114;48.726;9.370;2022-12-20T00:18:52;99360.06;;;3.77;99.69
1077;BME280;64114;48.726;9.370;2022-12-20T00:21:20;99355.72;;;3.74;99.51
1077;BME280;64114;48.726;9.370;2022-12-20T00:23:50;99336.72;;;3.65;100.00
1077;BME280;64114;48.726;9.370;2022-12-20T00:26:19;99335.03;;;3.65;99.86
1077;BME280;64114;48.726;9.370;2022-12-20T00:28:47;99322.09;;;3.59;100.00
1077;BME280;64114;48.726;9.370;2022-12-20T00:31:17;99330.22;;;3.71;99.73
1077;BME280;64114;48.726;9.370;2022-12-20T00:33:51;99330.09;;;3.68;99.53
1077;BME280;64114;48.726;9.370;2022-12-20T00:36:21;99331.16;;;3.73;99.41
1077;BME280;64114;48.726;9.370;2022-12-20T00:38:52;99329.38;;;3.71;99.28
1077;BME280;64114;48.726;9.370;2022-12-20T00:41:22;99305.00;;;3.55;99.50
1077;BME280;64114;48.726;9.370;2022-12-20T00:43:50;99313.94;;;3.66;98.23
1077;BME280;64114;48.726;9.370;2022-12-20T00:46:21;99337.38;;;3.80;98.47
1077;BME280;64114;48.726;9.370;2022-12-20T00:48:52;99344.38;;;3.66;99.06
1077;BME280;64114;48.726;9.370;2022-12-20T00:51:22;99344.72;;;3.54;99.78
1077;BME280;64114;48.726;9.370;2022-12-20T00:53:51;99343.97;;;3.57;99.91
1077;BME280;64114;48.726;9.370;2022-12-20T00:56:19;99341.13;;;3.49;100.00
1077;BME280;64114;48.726;9.370;2022-12-20T00:58:48;99346.50;;;3.57;100.00
1077;BME280;64114;48.726;9.370;2022-12-20T01:01:19;99332.31;;;3.60;99.81
1077;BME280;64114;48.726;9.370;2022-12-20T01:03:48;99335.50;;;3.56;99.99
1077;BME280;64114;48.726;9.370;2022-12-20T01:06:18;99327.09;;;3.57;100.00
1077;BME280;64114;48.726;9.370;2022-12-20T01:08:48;99336.38;;;3.57;99.97
1077;BME280;64114;48.726;9.370;2022-12-20T01:11:18;99339.28;;;3.66;99.64
1077;BME280;64114;48.726;9.370;2022-12-20T01:13:49;99328.16;;;3.63;99.57
1077;BME280;64114;48.726;9.370;2022-12-20T01:16:20;99332.03;;;3.74;99.59
1077;BME280;64114;48.726;9.370;2022-12-20T01:18:49;99344.75;;;3.75;99.19
1077;BME280;64114;48.726;9.370;2022-12-20T01:21:21;99340.09;;;3.65;99.46
1077;BME280;64114;48.726;9.370;2022-12-20T01:23:49;99327.69;;;3.52;100.00
1077;BME280;64114;48.726;9.370;2022-12-20T01:26:19;99358.78;;;3.67;99.97
1077;BME280;64114;48.726;9.370;2022-12-20T01:28:52;99366.78;;;3.76;99.94
1077;BME280;64114;48.726;9.370;2022-12-20T01:31:22;99349.00;;;3.75;99.24
1077;BME280;64114;48.726;9.370;2022-12-20T01:33:50;99339.16;;;3.83;99.21
1077;BME280;64114;48.726;9.370;2022-12-20T01:36:22;99355.66;;;3.73;99.34
1077;BME280;64114;48.726;9.370;2022-12-20T01:38:55;99355.44;;;3.68;99.70
1077;BME280;64114;48.726;9.370;2022-12-20T01:41:25;99323.41;;;3.51;100.00
1077;BME280;64114;48.726;9.370;2022-12-20T01:43:55;99340.38;;;3.71;99.85
1077;BME280;64114;48.726;9.370;2022-12-20T01:46:25;99343.56;;;3.67;99.62
1077;BME280;64114;48.726;9.370;2022-12-20T01:48:57;99339.28;;;3.66;100.00
1077;BME280;64114;48.726;9.370;2022-12-20T01:51:29;99320.88;;;3.70;100.00
1077;BME280;64114;48.726;9.370;2022-12-20T01:54:02;99320.03;;;3.70;99.30
1077;BME280;64114;48.726;9.370;2022-12-20T01:56:31;99309.22;;;3.74;98.97
1077;BME280;64114;48.726;9.370;2022-12-20T01:58:59;99312.06;;;3.82;98.92
1077;BME280;64114;48.726;9.370;2022-12-20T02:01:27;99305.34;;;3.63;98.98
1077;BME280;64114;48.726;9.370;2022-12-20T02:03:55;99328.31;;;3.66;99.62
1077;BME280;64114;48.726;9.370;2022-12-20T02:06:26;99322.03;;;3.77;99.55
1077;BME280;64114;48.726;9.370;2022-12-20T02:08:58;99321.88;;;3.74;99.64
1077;BME280;64114;48.726;9.370;2022-12-20T02:11:44;99319.28;;;3.72;99.79
1077;BME280;64114;48.726;9.370;2022-12-20T02:14:27;99279.34;;;3.47;100.00
1077;BME280;64114;48.726;9.370;2022-12-20T02:17:05;99305.47;;;3.66;99.95
1077;BME280;64114;48.726;9.370;2022-12-20T02:20:03;99289.34;;;3.64;99.89
1077;BME280;64114;48.726;9.370;2022-12-20T02:22:48;99241.78;;;3.38;99.60
1077;BME280;64114;48.726;9.370;2022-12-20T02:25:40;99290.66;;;3.75;100.00
1077;BME280;64114;48.726;9.370;2022-12-20T02:28:20;99285.31;;;3.69;99.82
1077;BME280;64114;48.726;9.370;2022-12-20T02:30:57;99281.09;;;3.69;99.77
1077;BME280;64114;48.726;9.370;2022-12-20T02:33:27;99273.44;;;3.68;99.91
1077;BME280;64114;48.726;9.370;2022-12-20T02:35:55;99243.34;;;3.56;99.78
1077;BME280;64114;48.726;9.370;2022-12-20T02:38:26;99270.16;;;3.70;99.47
1077;BME280;64114;48.726;9.370;2022-12-20T02:40:59;99272.78;;;3.72;99.96
1077;BME280;64114;48.726;9.370;2022-12-20T02:43:29;99277.50;;;3.64;99.96
1077;BME280;64114;48.726;9.370;2022-12-20T02:46:18;99285.13;;;3.64;100.00
1077;BME280;64114;48.726;9.370;2022-12-20T02:48:50;99273.84;;;3.77;99.49
1077;BME280;64114;48.726;9.370;2022-12-20T02:51:22;99284.44;;;3.68;99.17
1077;BME280;64114;48.726;9.370;2022-12-20T02:53:50;99246.16;;;3.62;99.37
1077;BME280;64114;48.726;9.370;2022-12-20T02:56:21;99275.81;;;3.84;98.94
1077;BME280;64114;48.726;9.370;2022-12-20T02:58:57;99268.63;;;3.74;99.14
1077;BME280;64114;48.726;9.370;2022-12-20T03:01:30;99271.09;;;3.72;99.65
1077;BME280;64114;48.726;9.370;2022-12-20T03:04:01;99268.63;;;3.74;99.66
1077;BME280;64114;48.726;9.370;2022-12-20T03:06:30;99258.63;;;3.77;99.33
1077;BME280;64114;48.726;9.370;2022-12-20T03:08:58;99269.31;;;3.70;99.43
1077;BME280;64114;48.726;9.370;2022-12-20T03:11:28;99262.63;;;3.72;99.64
1077;BME280;64114;48.726;9.370;2022-12-20T03:13:56;99264.53;;;3.78;99.24
1077;BME280;64114;48.726;9.370;2022-12-20T03:16:25;99247.28;;;3.69;99.08
1077;BME280;64114;48.726;9.370;2022-12-20T03:18:54;99253.41;;;3.74;99.32
1077;BME280;64114;48.726;9.370;2022-12-20T03:21:22;99259.34;;;3.74;99.27
1077;BME280;64114;48.726;9.370;2022-12-20T03:23:50;99238.94;;;3.71;99.35
1077;BME280;64114;48.726;9.370;2022-12-20T03:26:18;99236.94;;;3.64;99.69
1077;BME280;64114;48.726;9.370;2022-12-20T03:28:52;99245.47;;;3.66;99.87
1077;BME280;64114;48.726;9.370;2022-12-20T03:31:24;99252.25;;;3.87;99.15
1077;BME280;64114;48.726;9.370;2022-12-20T03:33:55;99217.06;;;3.54;99.19
1077;BME280;64114;48.726;9.370;2022-12-20T03:36:23;99238.94;;;3.71;99.12
1077;BME280;64114;48.726;9.370;2022-12-20T03:38:56;99241.53;;;3.73;99.48
1077;BME280;64114;48.726;9.370;2022-12-20T03:41:28;99235.72;;;3.75;98.99
1077;BME280;64114;48.726;9.370;2022-12-20T03:43:56;99226.88;;;3.87;98.31
1077;BME280;64114;48.726;9.370;2022-12-20T03:46:24;99220.88;;;3.85;98.42
1077;BME280;64114;48.726;9.370;2022-12-20T03:48:56;99237.28;;;3.72;98.58
1077;BME280;64114;48.726;9.370;2022-12-20T03:51:24;99223.22;;;3.59;98.83
1077;BME280;64114;48.726;9.370;2022-12-20T03:53:52;99231.56;;;3.56;99.25
1077;BME280;64114;48.726;9.370;2022-12-20T03:56:26;99239.09;;;3.55;99.39
1077;BME280;64114;48.726;9.370;2022-12-20T03:58:54;99243.81;;;3.67;99.21
1077;BME280;64114;48.726;9.370;2022-12-20T04:01:24;99207.56;;;3.48;98.98
1077;BME280;64114;48.726;9.370;2022-12-20T04:03:54;99231.75;;;3.61;99.20
1077;BME280;64114;48.726;9.370;2022-12-20T04:06:24;99220.88;;;3.64;99.10
1077;BME280;64114;48.726;9.370;2022-12-20T04:08:51;99221.44;;;3.78;98.95
1077;BME280;64114;48.726;9.370;2022-12-20T04:11:26;99217.47;;;3.84;97.91
1077;BME280;64114;48.726;9.370;2022-12-20T04:14:05;99216.34;;;3.78;97.80
1077;BME280;64114;48.726;9.370;2022-12-20T04:16:34;99218.72;;;3.73;98.02
1077;BME280;64114;48.726;9.370;2022-12-20T04:19:04;99220.56;;;3.77;98.43
1077;BME280;64114;48.726;9.370;2022-12-20T04:21:39;99221.19;;;3.71;98.43
1077;BME280;64114;48.726;9.370;2022-12-20T04:24:08;99197.41;;;3.69;98.62
1077;BME280;64114;48.726;9.370;2022-12-20T04:26:42;99140.53;;;3.41;98.51
1077;BME280;64114;48.726;9.370;2022-12-20T04:29:11;99188.28;;;3.73;98.46
1077;BME280;64114;48.726;9.370;2022-12-20T04:31:40;99159.66;;;3.54;98.69
1077;BME280;64114;48.726;9.370;2022-12-20T04:34:09;99187.41;;;3.72;99.01
1077;BME280;64114;48.726;9.370;2022-12-20T04:36:39;99193.47;;;3.76;98.34
1077;BME280;64114;48.726;9.370;2022-12-20T04:39:13;99194.66;;;3.84;98.08
1077;BME280;64114;48.726;9.370;2022-12-20T04:41:58;99196.19;;;3.81;97.64
1077;BME280;64114;48.726;9.370;2022-12-20T04:44:26;99201.09;;;3.76;98.59
1077;BME280;64114;48.726;9.370;2022-12-20T04:46:54;99220.44;;;3.74;98.92
1077;BME280;64114;48.726;9.370;2022-12-20T04:49:23;99201.81;;;3.73;98.90
1077;BME280;64114;48.726;9.370;2022-12-20T04:51:52;99188.84;;;3.66;98.73
1077;BME280;64114;48.726;9.370;2022-12-20T04:54:25;99165.56;;;3.55;99.02
1077;BME280;64114;48.726;9.370;2022-12-20T04:56:58;99167.44;;;3.80;98.13
1077;BME280;64114;48.726;9.370;2022-12-20T04:59:26;99175.53;;;3.93;97.92
1077;BME280;64114;48.726;9.370;2022-12-20T05:01:54;99206.59;;;3.87;98.26
1077;BME280;64114;48.726;9.370;2022-12-20T05:04:42;99173.59;;;3.87;98.10
1077;BME280;64114;48.726;9.370;2022-12-20T05:07:11;99193.28;;;3.93;97.88
1077;BME280;64114;48.726;9.370;2022-12-20T05:09:46;99191.25;;;3.84;98.30
1077;BME280;64114;48.726;9.370;2022-12-20T05:12:14;99197.00;;;3.80;98.63
1077;BME280;64114;48.726;9.370;2022-12-20T05:14:43;99171.38;;;3.73;98.89
1077;BME280;64114;48.726;9.370;2022-12-20T05:17:13;99175.28;;;3.86;98.52
1077;BME280;64114;48.726;9.370;2022-12-20T05:19:41;99160.41;;;3.73;98.50
1077;BME280;64114;48.726;9.370;2022-12-20T05:22:12;99176.03;;;3.84;98.81
1077;BME280;64114;48.726;9.370;2022-12-20T05:25:10;99176.91;;;3.84;98.58
1077;BME280;64114;48.726;9.370;2022-12-20T05:28:00;99170.81;;;3.81;99.01
1077;BME280;64114;48.726;9.370;2022-12-20T05:30:32;99158.94;;;3.80;98.60
1077;BME280;64114;48.726;9.370;2022-12-20T05:33:01;99175.97;;;3.82;98.87
1077;BME280;64114;48.726;9.370;2022-12-20T05:35:30;99162.41;;;3.82;99.13
1077;BME280;64114;48.726;9.370;2022-12-20T05:38:05;99124.78;;;3.70;98.82
1077;BME280;64114;48.726;9.370;2022-12-20T05:40:34;99152.34;;;3.83;99.11
1077;BME280;64114;48.726;9.370;2022-12-20T05:43:03;99143.06;;;3.84;99.09
1077;BME280;64114;48.726;9.370;2022-12-20T05:45:39;99151.72;;;3.89;99.05
1077;BME280;64114;48.726;9.370;2022-12-20T05:48:12;99168.72;;;3.91;98.90
1077;BME280;64114;48.726;9.370;2022-12-20T05:50:42;99156.97;;;3.94;98.53
1077;BME280;64114;48.726;9.370;2022-12-20T05:53:33;99146.75;;;3.92;98.77
1077;BME280;64114;48.726;9.370;2022-12-20T05:56:04;99110.06;;;3.84;98.31
1077;BME280;64114;48.726;9.370;2022-12-20T05:58:35;99119.16;;;4.00;97.53
1077;BME280;64114;48.726;9.370;2022-12-20T06:01:05;99130.59;;;3.90;98.13
1077;BME280;64114;48.726;9.370;2022-12-20T06:03:37;99136.56;;;3.90;97.61
1077;BME280;64114;48.726;9.370;2022-12-20T06:06:10;99136.69;;;3.94;97.67
1077;BME280;64114;48.726;9.370;2022-12-20T06:08:43;99113.41;;;3.83;97.34
1077;BME280;64114;48.726;9.370;2022-12-20T06:11:17;99121.94;;;3.85;97.61
1077;BME280;64114;48.726;9.370;2022-12-20T06:13:58;99135.56;;;3.87;97.85
1077;BME280;64114;48.726;9.370;2022-12-20T06:16:27;99124.91;;;3.96;97.61
1077;BME280;64114;48.726;9.370;2022-12-20T06:18:56;99126.34;;;3.89;97.64
1077;BME280;64114;48.726;9.370;2022-12-20T06:21:24;99126.47;;;3.92;97.78
1077;BME280;64114;48.726;9.370;2022-12-20T06:23:55;99132.63;;;3.76;98.46
1077;BME280;64114;48.726;9.370;2022-12-20T06:26:23;99139.66;;;3.83;98.25
1077;BME280;64114;48.726;9.370;2022-12-20T06:28:52;99138.53;;;3.76;98.67
1077;BME280;64114;48.726;9.370;2022-12-20T06:31:36;99132.06;;;3.83;98.87
1077;BME280;64114;48.726;9.370;2022-12-20T06:34:05;99125.41;;;3.87;97.94
1077;BME280;64114;48.726;9.370;2022-12-20T06:36:38;99120.88;;;3.78;98.26
1077;BME280;64114;48.726;9.370;2022-12-20T06:39:10;99131.00;;;3.78;98.31
1077;BME280;64114;48.726;9.370;2022-12-20T06:41:46;99116.78;;;3.60;98.61
1077;BME280;64114;48.726;9.370;2022-12-20T06:44:14;99140.28;;;3.78;98.81
1077;BME280;64114;48.726;9.370;2022-12-20T06:46:42;99135.19;;;3.78;99.14
1077;BME280;64114;48.726;9.370;2022-12-20T06:49:10;99152.22;;;3.80;99.34
1077;BME280;64114;48.726;9.370;2022-12-20T06:51:38;99160.69;;;3.81;99.16
1077;BME280;64114;48.726;9.370;2022-12-20T06:54:05;99140.75;;;3.90;99.06
1077;BME280;64114;48.726;9.370;2022-12-20T06:56:35;99158.63;;;3.93;98.82
1077;BME280;64114;48.726;9.370;2022-12-20T06:59:09;99143.81;;;3.81;99.09
1077;BME280;64114;48.726;9.370;2022-12-20T07:01:36;99150.72;;;3.85;99.21
1077;BME280;64114;48.726;9.370;2022-12-20T07:04:04;99158.38;;;3.87;99.28
1077;BME280;64114;48.726;9.370;2022-12-20T07:06:32;99156.50;;;3.81;99.31
1077;BME280;64114;48.726;9.370;2022-12-20T07:09:01;99138.97;;;3.87;99.29
1077;BME280;64114;48.726;9.370;2022-12-20T07:11:29;99137.38;;;3.89;99.09
1077;BME280;64114;48.726;9.370;2022-12-20T07:13:58;99132.78;;;3.81;99.32
1077;BME280;64114;48.726;9.370;2022-12-20T07:16:26;99137.28;;;3.88;99.51
1077;BME280;64114;48.726;9.370;2022-12-20T07:18:54;99133.34;;;3.95;99.20
1077;BME280;64114;48.726;9.370;2022-12-20T07:21:22;99141.75;;;3.94;99.14
1077;BME280;64114;48.726;9.370;2022-12-20T07:23:51;99150.97;;;3.91;99.12
1077;BME280;64114;48.726;9.370;2022-12-20T07:26:19;99134.94;;;3.93;99.03
1077;BME280;64114;48.726;9.370;2022-12-20T07:28:47;99136.56;;;3.90;99.17
1077;BME280;64114;48.726;9.370;2022-12-20T07:31:16;99143.72;;;4.01;99.06
1077;BME280;64114;48.726;9.370;2022-12-20T07:33:44;99144.56;;;4.01;99.16
1077;BME280;64114;48.726;9.370;2022-12-20T07:36:13;99140.94;;;3.95;99.14
1077;BME280;64114;48.726;9.370;2022-12-20T07:38:41;99146.13;;;3.98;99.64
1077;BME280;64114;48.726;9.370;2022-12-20T07:41:11;99133.34;;;3.95;99.88
1077;BME280;64114;48.726;9.370;2022-12-20T07:43:39;99113.31;;;3.80;100.00
1077;BME280;64114;48.726;9.370;2022-12-20T07:46:11;99115.16;;;3.84;100.00
1077;BME280;64114;48.726;9.370;2022-12-20T07:48:41;99132.78;;;4.02;100.00
1077;BME280;64114;48.726;9.370;2022-12-20T07:51:14;99132.31;;;4.12;99.76
1077;BME280;64114;48.726;9.370;2022-12-20T07:53:46;99129.59;;;4.08;99.54
1077;BME280;64114;48.726;9.370;2022-12-20T07:56:17;99132.69;;;4.00;99.64
1077;BME280;64114;48.726;9.370;2022-12-20T07:58:48;99144.81;;;4.08;99.72
1077;BME280;64114;48.726;9.370;2022-12-20T08:01:19;99136.22;;;4.04;99.82
1077;BME280;64114;48.726;9.370;2022-12-20T08:03:51;99150.91;;;4.13;99.42
1077;BME280;64114;48.726;9.370;2022-12-20T08:06:19;99145.00;;;4.12;99.45
1077;BME280;64114;48.726;9.370;2022-12-20T08:08:50;99155.19;;;4.14;99.21
1077;BME280;64114;48.726;9.370;2022-12-20T08:11:20;99152.50;;;4.09;99.33
1077;BME280;64114;48.726;9.370;2022-12-20T08:13:49;99142.84;;;4.23;99.01
1077;BME280;64114;48.726;9.370;2022-12-20T08:16:23;99158.78;;;4.19;98.94
1077;BME280;64114;48.726;9.370;2022-12-20T08:18:53;99147.09;;;4.23;99.11
1077;BME280;64114;48.726;9.370;2022-12-20T08:21:21;99137.97;;;4.28;99.24
1077;BME280;64114;48.726;9.370;2022-12-20T08:23:49;99135.34;;;4.26;99.02
1077;BME280;64114;48.726;9.370;2022-12-20T08:26:17;99138.00;;;4.29;99.36
1077;BME280;64114;48.726;9.370;2022-12-20T08:28:45;99135.88;;;4.40;99.40
1077;BME280;64114;48.726;9.370;2022-12-20T08:31:14;99101.31;;;4.21;98.53
1077;BME280;64114;48.726;9.370;2022-12-20T08:33:42;99136.97;;;4.47;98.44
1077;BME280;64114;48.726;9.370;2022-12-20T08:36:12;99121.81;;;4.48;98.59
1077;BME280;64114;48.726;9.370;2022-12-20T08:38:41;99127.69;;;4.47;98.97
1077;BME280;64114;48.726;9.370;2022-12-20T08:41:11;99115.81;;;4.46;99.14
1077;BME280;64114;48.726;9.370;2022-12-20T08:43:39;99109.81;;;4.44;99.37
1077;BME280;64114;48.726;9.370;2022-12-20T08:46:09;99086.66;;;4.37;99.01
1077;BME280;64114;48.726;9.370;2022-12-20T08:48:38;99095.53;;;4.48;99.28
1077;BME280;64114;48.726;9.370;2022-12-20T08:51:08;99089.63;;;4.49;99.30
1077;BME280;64114;48.726;9.370;2022-12-20T08:53:39;99092.25;;;4.50;99.79
1077;BME280;64114;48.726;9.370;2022-12-20T08:56:08;99089.75;;;4.52;99.78
1077;BME280;64114;48.726;9.370;2022-12-20T08:58:37;99082.19;;;4.54;99.60
1077;BME280;64114;48.726;9.370;2022-12-20T09:01:07;99095.31;;;4.66;99.42
1077;BME280;64114;48.726;9.370;2022-12-20T09:03:37;99081.91;;;4.70;99.28
1077;BME280;64114;48.726;9.370;2022-12-20T09:06:07;99080.25;;;4.71;98.82
1077;BME280;64114;48.726;9.370;2022-12-20T09:08:38;99082.78;;;4.71;98.99
1077;BME280;64114;48.726;9.370;2022-12-20T09:11:09;99085.53;;;4.77;98.99
1077;BME280;64114;48.726;9.370;2022-12-20T09:13:38;99079.19;;;4.90;98.29
1077;BME280;64114;48.726;9.370;2022-12-20T09:16:11;99090.81;;;4.83;97.77
1077;BME280;64114;48.726;9.370;2022-12-20T09:18:39;99091.63;;;4.82;98.96
1077;BME280;64114;48.726;9.370;2022-12-20T09:21:08;99093.25;;;4.80;98.52
1077;BME280;64114;48.726;9.370;2022-12-20T09:23:42;99088.78;;;4.73;98.96
1077;BME280;64114;48.726;9.370;2022-12-20T09:26:13;99079.53;;;4.75;99.30
1077;BME280;64114;48.726;9.370;2022-12-20T09:28:42;99089.94;;;4.83;98.99
1077;BME280;64114;48.726;9.370;2022-12-20T09:31:12;99087.25;;;4.78;98.98
1077;BME280;64114;48.726;9.370;2022-12-20T09:33:41;99074.97;;;4.90;99.18
1077;BME280;64114;48.726;9.370;2022-12-20T09:36:10;99074.91;;;4.89;98.97
1077;BME280;64114;48.726;9.370;2022-12-20T09:38:39;99069.59;;;4.81;98.92
1077;BME280;64114;48.726;9.370;2022-12-20T09:41:20;99067.47;;;4.93;99.10
1077;BME280;64114;48.726;9.370;2022-12-20T09:43:49;99070.75;;;4.91;99.21
1077;BME280;64114;48.726;9.370;2022-12-20T09:46:17;99071.06;;;5.00;99.12
1077;BME280;64114;48.726;9.370;2022-12-20T09:48:46;99082.94;;;5.01;99.01
1077;BME280;64114;48.726;9.370;2022-12-20T09:51:25;99012.81;;;4.80;98.37
1077;BME280;64114;48.726;9.370;2022-12-20T09:54:04;99064.94;;;5.19;98.63
1077;BME280;64114;48.726;9.370;2022-12-20T09:56:40;99056.31;;;5.16;98.29
1077;BME280;64114;48.726;9.370;2022-12-20T09:59:11;99055.28;;;5.36;97.89
1077;BME280;64114;48.726;9.370;2022-12-20T10:01:43;99026.69;;;5.16;97.14
1077;BME280;64114;48.726;9.370;2022-12-20T10:04:17;99028.84;;;5.31;97.73
1077;BME280;64114;48.726;9.370;2022-12-20T10:06:54;99032.31;;;5.33;98.01
1077;BME280;64114;48.726;9.370;2022-12-20T10:09:41;99035.75;;;5.35;97.50
1077;BME280;64114;48.726;9.370;2022-12-20T10:12:24;99032.47;;;5.38;98.33
1077;BME280;64114;48.726;9.370;2022-12-20T10:15:13;99026.75;;;5.45;97.79
1077;BME280;64114;48.726;9.370;2022-12-20T10:17:53;99036.06;;;5.45;97.42
1077;BME280;64114;48.726;9.370;2022-12-20T10:20:44;99029.44;;;5.50;97.63
1077;BME280;64114;48.726;9.370;2022-12-20T10:23:18;99032.34;;;5.62;97.03
1077;BME280;64114;48.726;9.370;2022-12-20T10:25:58;99032.06;;;5.53;96.47
1077;BME280;64114;48.726;9.370;2022-12-20T10:28:29;99023.34;;;5.45;96.86
1077;BME280;64114;48.726;9.370;2022-12-20T10:31:00;99021.75;;;5.48;96.95
1077;BME280;64114;48.726;9.370;2022-12-20T10:33:29;99021.81;;;5.50;96.99
1077;BME280;64114;48.726;9.370;2022-12-20T10:36:19;98998.06;;;5.49;96.97
1077;BME280;64114;48.726;9.370;2022-12-20T10:38:49;99005.88;;;5.56;96.92
1077;BME280;64114;48.726;9.370;2022-12-20T10:41:18;99006.16;;;5.65;97.15
1077;BME280;64114;48.726;9.370;2022-12-20T10:43:53;99000.97;;;5.62;96.81
1077;BME280;64114;48.726;9.370;2022-12-20T10:46:33;98979.44;;;5.50;96.39
1077;BME280;64114;48.726;9.370;2022-12-20T10:49:21;98981.34;;;5.58;96.98
1077;BME280;64114;48.726;9.370;2022-12-20T10:51:51;98981.53;;;5.64;96.76
1077;BME280;64114;48.726;9.370;2022-12-20T10:54:22;98975.47;;;5.60;96.58
1077;BME280;64114;48.726;9.370;2022-12-20T10:56:54;98969.47;;;5.58;96.95
1077;BME280;64114;48.726;9.370;2022-12-20T10:59:31;98970.38;;;5.59;96.92
1077;BME280;64114;48.726;9.370;2022-12-20T11:02:00;98968.75;;;5.62;97.35
1077;BME280;64114;48.726;9.370;2022-12-20T11:04:31;98968.81;;;5.64;97.17
1077;BME280;64114;48.726;9.370;2022-12-20T11:07:02;98963.84;;;5.68;97.25
1077;BME280;64114;48.726;9.370;2022-12-20T11:09:32;98937.16;;;5.54;97.19
1077;BME280;64114;48.726;9.370;2022-12-20T11:12:06;98963.59;;;5.59;97.32
1077;BME280;64114;48.726;9.370;2022-12-20T11:14:38;98967.75;;;5.57;97.72
1077;BME280;64114;48.726;9.370;2022-12-20T11:17:21;98961.22;;;5.65;98.12
1077;BME280;64114;48.726;9.370;2022-12-20T11:20:15;98942.97;;;5.50;97.79
1077;BME280;64114;48.726;9.370;2022-12-20T11:22:55;98950.75;;;5.55;98.56
1077;BME280;64114;48.726;9.370;2022-12-20T11:25:51;98947.31;;;5.54;98.48
1077;BME280;64114;48.726;9.370;2022-12-20T11:28:43;98944.47;;;5.72;98.86
1077;BME280;64114;48.726;9.370;2022-12-20T11:31:19;98940.41;;;5.79;97.95
1077;BME280;64114;48.726;9.370;2022-12-20T11:34:01;98938.00;;;5.83;98.08
1077;BME280;64114;48.726;9.370;2022-12-20T11:36:51;98908.38;;;5.55;97.97
1077;BME280;64114;48.726;9.370;2022-12-20T11:39:29;98912.97;;;5.68;98.96
1077;BME280;64114;48.726;9.370;2022-12-20T11:42:03;98916.59;;;5.77;98.60
1077;BME280;64114;48.726;9.370;2022-12-20T11:44:48;98914.31;;;5.86;98.81
1077;BME280;64114;48.726;9.370;2022-12-20T11:47:45;98897.81;;;5.72;98.20
1077;BME280;64114;48.726;9.370;2022-12-20T11:50:52;98912.72;;;5.90;98.69
1077;BME280;64114;48.726;9.370;2022-12-20T11:53:26;98917.16;;;5.97;98.84
1077;BME280;64114;48.726;9.370;2022-12-20T11:55:58;98909.56;;;5.98;98.80
1077;BME280;64114;48.726;9.370;2022-12-20T11:58:29;98902.25;;;6.11;99.55
1077;BME280;64114;48.726;9.370;2022-12-20T12:01:03;98899.94;;;6.20;98.83
1077;BME280;64114;48.726;9.370;2022-12-20T12:03:37;98896.41;;;6.15;97.97
1077;BME280;64114;48.726;9.370;2022-12-20T12:06:08;98883.72;;;6.17;98.08
1077;BME280;64114;48.726;9.370;2022-12-20T12:08:44;98889.13;;;6.29;98.47
1077;BME280;64114;48.726;9.370;2022-12-20T12:11:18;98885.56;;;6.22;97.88
1077;BME280;64114;48.726;9.370;2022-12-20T12:14:15;98865.56;;;6.04;97.95
1077;BME280;64114;48.726;9.370;2022-12-20T12:16:46;98886.31;;;6.18;97.61
1077;BME280;64114;48.726;9.370;2022-12-20T12:19:19;98900.28;;;6.34;97.29
1077;BME280;64114;48.726;9.370;2022-12-20T12:21:52;98876.47;;;6.32;96.15
1077;BME280;64114;48.726;9.370;2022-12-20T12:24:26;98876.97;;;6.19;96.50
1077;BME280;64114;48.726;9.370;2022-12-20T12:26:57;98882.88;;;6.16;96.96
1077;BME280;64114;48.726;9.370;2022-12-20T12:29:27;98842.09;;;5.81;96.96
1077;BME280;64114;48.726;9.370;2022-12-20T12:32:00;98873.34;;;6.09;97.46
1077;BME280;64114;48.726;9.370;2022-12-20T12:34:46;98880.16;;;6.10;97.38
1077;BME280;64114;48.726;9.370;2022-12-20T12:40:43;98865.94;;;6.18;97.25
1077;BME280;64114;48.726;9.370;2022-12-20T12:43:44;98870.88;;;6.12;97.82
1077;BME280;64114;48.726;9.370;2022-12-20T12:46:14;98864.31;;;6.22;98.49
1077;BME280;64114;48.726;9.370;2022-12-20T12:48:48;98868.69;;;6.26;98.10
1077;BME280;64114;48.726;9.370;2022-12-20T12:51:25;98843.94;;;6.20;98.40
1077;BME280;64114;48.726;9.370;2022-12-20T12:54:02;98838.88;;;6.22;98.13
1077;BME280;64114;48.726;9.370;2022-12-20T12:56:38;98863.03;;;6.38;97.51
1077;BME280;64114;48.726;9.370;2022-12-20T12:59:39;98854.72;;;6.45;98.00
1077;BME280;64114;48.726;9.370;2022-12-20T13:02:34;98847.09;;;6.47;97.95
1077;BME280;64114;48.726;9.370;2022-12-20T13:05:30;98839.63;;;6.53;97.84
1077;BME280;64114;48.726;9.370;2022-12-20T13:08:01;98807.09;;;6.41;97.99
1077;BME280;64114;48.726;9.370;2022-12-20T13:11:00;98831.97;;;6.51;98.07
1077;BME280;64114;48.726;9.370;2022-12-20T13:13:28;98806.22;;;6.40;98.19
1077;BME280;64114;48.726;9.370;2022-12-20T13:16:09;98823.84;;;6.68;98.05
1077;BME280;64114;48.726;9.370;2022-12-20T13:18:37;98821.19;;;6.63;97.89
1077;BME280;64114;48.726;9.370;2022-12-20T13:21:29;98821.19;;;6.63;98.05
1077;BME280;64114;48.726;9.370;2022-12-20T13:27:28;98838.25;;;6.67;97.46
1077;BME280;64114;48.726;9.370;2022-12-20T13:30:00;98840.72;;;6.63;97.27
1077;BME280;64114;48.726;9.370;2022-12-20T13:32:52;98837.25;;;6.61;97.99
1077;BME280;64114;48.726;9.370;2022-12-20T13:35:42;98831.22;;;6.57;97.94
1077;BME280;64114;48.726;9.370;2022-12-20T13:38:36;98832.06;;;6.56;97.83
1077;BME280;64114;48.726;9.370;2022-12-20T13:41:15;98831.19;;;6.55;97.66
1077;BME280;64114;48.726;9.370;2022-12-20T13:43:48;98837.75;;;6.46;97.62
1077;BME280;64114;48.726;9.370;2022-12-20T13:46:20;98825.84;;;6.45;97.42
1077;BME280;64114;48.726;9.370;2022-12-20T13:48:52;98831.06;;;6.51;97.93
1077;BME280;64114;48.726;9.370;2022-12-20T13:51:22;98817.38;;;6.46;97.50
1077;BME280;64114;48.726;9.370;2022-12-20T13:53:52;98830.97;;;6.46;97.57
1077;BME280;64114;48.726;9.370;2022-12-20T13:56:33;98819.16;;;6.50;98.29
1077;BME280;64114;48.726;9.370;2022-12-20T13:59:06;98816.00;;;6.59;98.25
1077;BME280;64114;48.726;9.370;2022-12-20T14:01:46;98810.84;;;6.57;97.90